createdAt,value
2022-07-31T00:00:21.697Z,2084
2022-07-31T00:01:21.666Z,2102
2022-07-31T00:03:21.912Z,1774
2022-07-31T00:04:21.670Z,1795
2022-07-31T00:05:21.671Z,2027
2022-07-31T00:06:21.693Z,2009
2022-07-31T00:08:21.854Z,2020
2022-07-31T00:09:45.615Z,2009
2022-07-31T00:10:21.672Z,1723
2022-07-31T00:11:21.672Z,1723
2022-07-31T00:13:57.025Z,1988
2022-07-31T00:14:21.675Z,2038
2022-07-31T00:15:21.674Z,1759
2022-07-31T00:16:21.675Z,1769
2022-07-31T00:18:21.867Z,2220
2022-07-31T00:19:21.699Z,1999
2022-07-31T00:20:21.640Z,1999
2022-07-31T00:21:21.676Z,1674
2022-07-31T00:23:21.842Z,2030
2022-07-31T00:24:21.649Z,1873
2022-07-31T00:25:21.643Z,1980
2022-07-31T00:26:21.675Z,1988
2022-07-31T00:28:21.885Z,1723
2022-07-31T00:29:21.680Z,1659
2022-07-31T00:30:21.645Z,2027
2022-07-31T00:31:21.694Z,2017
2022-07-31T00:33:21.855Z,2136
2022-07-31T00:34:21.672Z,1659
2022-07-31T00:35:21.651Z,1759
2022-07-31T00:36:21.681Z,1908
2022-07-31T00:38:26.762Z,1895
2022-07-31T00:39:21.678Z,1759
2022-07-31T00:40:21.654Z,1787
2022-07-31T00:41:21.657Z,1777
2022-07-31T00:43:21.859Z,2020
2022-07-31T00:44:21.681Z,2058
2022-07-31T00:45:22.180Z,2012
2022-07-31T00:46:21.680Z,2074
2022-07-31T00:48:21.858Z,1825
2022-07-31T00:49:21.752Z,1902
2022-07-31T00:50:21.654Z,1985
2022-07-31T00:51:21.689Z,1991
2022-07-31T00:53:21.857Z,1659
2022-07-31T00:54:22.897Z,1712
2022-07-31T00:55:21.659Z,1769
2022-07-31T00:56:21.686Z,2070
2022-07-31T00:58:21.875Z,1835
2022-07-31T00:59:24.502Z,1657
2022-07-31T01:00:21.662Z,1614
2022-07-31T01:01:21.682Z,1520
2022-07-31T01:03:21.869Z,1877
2022-07-31T01:04:21.690Z,1905
2022-07-31T01:05:21.697Z,1870
2022-07-31T01:06:21.691Z,1895
2022-07-31T01:08:21.870Z,1882
2022-07-31T01:09:21.704Z,1825
2022-07-31T01:10:21.680Z,1817
2022-07-31T01:11:21.705Z,1594
2022-07-31T01:13:21.869Z,1594
2022-07-31T01:14:21.702Z,1817
2022-07-31T01:15:21.668Z,1844
2022-07-31T01:16:21.696Z,1835
2022-07-31T01:18:21.886Z,1431
2022-07-31T01:19:21.692Z,1581
2022-07-31T01:20:21.695Z,1844
2022-07-31T01:21:21.703Z,1851
2022-07-31T01:23:21.908Z,1825
2022-07-31T01:24:21.698Z,1854
2022-07-31T01:25:21.678Z,1844
2022-07-31T01:26:21.705Z,1854
2022-07-31T01:28:21.910Z,1854
2022-07-31T01:29:21.675Z,1844
2022-07-31T01:30:21.705Z,1851
2022-07-31T01:31:26.958Z,1604
2022-07-31T01:33:21.912Z,1785
2022-07-31T01:34:21.720Z,1835
2022-07-31T01:35:21.725Z,1640
2022-07-31T01:36:21.716Z,1597
2022-07-31T01:38:21.904Z,1597
2022-07-31T01:39:21.723Z,1638
2022-07-31T01:40:21.719Z,1885
2022-07-31T01:41:21.721Z,1895
2022-07-31T01:43:21.894Z,1905
2022-07-31T01:44:21.720Z,1650
2022-07-31T01:45:21.716Z,1638
2022-07-31T01:46:21.722Z,1895
2022-07-31T01:48:21.895Z,1905
2022-07-31T01:49:21.767Z,1741
2022-07-31T01:50:42.080Z,1895
2022-07-31T01:51:21.735Z,1905
2022-07-31T01:53:21.918Z,1644
2022-07-31T01:54:21.726Z,1851
2022-07-31T01:55:21.727Z,1855
2022-07-31T01:56:21.724Z,1851
2022-07-31T01:58:21.919Z,1851
2022-07-31T01:59:22.750Z,1877
2022-07-31T02:00:34.067Z,1614
2022-07-31T02:01:25.385Z,1621
2022-07-31T02:03:43.256Z,1486
2022-07-31T02:04:21.695Z,1865
2022-07-31T02:05:21.739Z,1855
2022-07-31T02:06:21.699Z,1885
2022-07-31T02:08:21.902Z,1621
2022-07-31T02:09:21.703Z,1604
2022-07-31T02:10:21.708Z,1627
2022-07-31T02:11:21.723Z,1865
2022-07-31T02:13:21.908Z,1865
2022-07-31T02:14:21.707Z,1657
2022-07-31T02:15:21.701Z,1604
2022-07-31T02:16:21.716Z,1594
2022-07-31T02:18:21.921Z,1844
2022-07-31T02:19:21.713Z,1928
2022-07-31T02:20:21.772Z,1908
2022-07-31T02:21:21.721Z,1917
2022-07-31T02:23:21.934Z,1873
2022-07-31T02:24:21.728Z,1877
2022-07-31T02:25:21.751Z,1928
2022-07-31T02:26:21.730Z,1917
2022-07-31T02:28:21.908Z,1680
2022-07-31T02:29:21.711Z,1698
2022-07-31T02:30:21.709Z,1657
2022-07-31T02:31:21.726Z,1723
2022-07-31T02:33:21.942Z,1892
2022-07-31T02:34:21.714Z,1855
2022-07-31T02:35:21.744Z,1816
2022-07-31T02:36:21.725Z,1497
2022-07-31T02:38:22.456Z,1855
2022-07-31T02:39:21.767Z,1996
2022-07-31T02:40:21.750Z,1996
2022-07-31T02:41:21.769Z,1996
2022-07-31T02:43:21.922Z,1741
2022-07-31T02:44:27.016Z,1746
2022-07-31T02:45:21.753Z,1988
2022-07-31T02:46:21.760Z,2058
2022-07-31T02:48:21.917Z,1855
2022-07-31T02:49:21.790Z,2001
2022-07-31T02:50:21.777Z,1956
2022-07-31T02:51:21.753Z,1988
2022-07-31T02:53:21.950Z,2038
2022-07-31T02:54:21.754Z,1953
2022-07-31T02:55:21.760Z,1908
2022-07-31T02:56:21.749Z,1991
2022-07-31T02:58:21.952Z,1975
2022-07-31T02:59:21.719Z,2090
2022-07-31T03:00:21.801Z,1769
2022-07-31T03:01:21.829Z,2070
2022-07-31T03:03:21.958Z,1975
2022-07-31T03:04:21.731Z,1925
2022-07-31T03:05:21.758Z,1746
2022-07-31T03:06:21.770Z,1627
2022-07-31T03:08:21.956Z,1712
2022-07-31T03:09:21.734Z,2030
2022-07-31T03:10:21.758Z,2012
2022-07-31T03:11:21.738Z,2030
2022-07-31T03:13:21.952Z,1741
2022-07-31T03:14:21.763Z,1798
2022-07-31T03:15:21.758Z,1790
2022-07-31T03:16:21.744Z,1790
2022-07-31T03:18:21.960Z,2100
2022-07-31T03:19:21.759Z,2070
2022-07-31T03:20:21.745Z,2090
2022-07-31T03:21:21.765Z,1574
2022-07-31T03:23:21.961Z,1738
2022-07-31T03:24:21.750Z,1717
2022-07-31T03:25:22.279Z,1816
2022-07-31T03:26:21.759Z,1988
2022-07-31T03:28:21.971Z,2009
2022-07-31T03:29:36.096Z,2038
2022-07-31T03:30:21.772Z,1964
2022-07-31T03:31:21.788Z,1759
2022-07-31T03:33:21.954Z,1746
2022-07-31T03:34:21.774Z,1975
2022-07-31T03:35:21.770Z,1873
2022-07-31T03:36:21.773Z,2020
2022-07-31T03:38:32.975Z,1991
2022-07-31T03:39:21.766Z,1640
2022-07-31T03:40:21.750Z,1798
2022-07-31T03:41:21.770Z,2030
2022-07-31T03:43:21.949Z,2074
2022-07-31T03:44:21.749Z,2001
2022-07-31T03:45:21.784Z,2064
2022-07-31T03:46:21.765Z,1917
2022-07-31T03:48:21.987Z,1751
2022-07-31T03:49:21.829Z,1571
2022-07-31T03:50:21.778Z,1712
2022-07-31T03:51:21.767Z,1975
2022-07-31T03:53:21.950Z,2027
2022-07-31T03:54:21.786Z,1975
2022-07-31T03:55:21.753Z,1844
2022-07-31T03:56:21.760Z,1792
2022-07-31T03:58:21.959Z,1746
2022-07-31T03:59:21.795Z,1712
2022-07-31T04:00:21.765Z,1991
2022-07-31T04:01:21.991Z,1985
2022-07-31T04:03:21.987Z,1707
2022-07-31T04:04:21.786Z,1667
2022-07-31T04:05:21.798Z,1916
2022-07-31T04:06:21.806Z,1813
2022-07-31T04:08:21.992Z,1937
2022-07-31T04:09:21.822Z,1975
2022-07-31T04:10:21.808Z,1694
2022-07-31T04:11:21.795Z,1701
2022-07-31T04:13:21.999Z,2020
2022-07-31T04:14:21.768Z,1953
2022-07-31T04:15:21.792Z,1945
2022-07-31T04:16:21.765Z,1936
2022-07-31T04:18:21.982Z,1685
2022-07-31T04:19:21.765Z,1801
2022-07-31T04:20:21.796Z,2074
2022-07-31T04:21:21.769Z,2074
2022-07-31T04:23:22.282Z,2056
2022-07-31T04:24:21.816Z,1975
2022-07-31T04:25:21.808Z,2078
2022-07-31T04:26:25.616Z,1897
2022-07-31T04:28:21.968Z,1738
2022-07-31T04:29:21.800Z,1697
2022-07-31T04:30:21.772Z,1951
2022-07-31T04:31:21.805Z,1964
2022-07-31T04:33:21.984Z,1985
2022-07-31T04:34:21.823Z,1951
2022-07-31T04:35:21.776Z,1985
2022-07-31T04:36:30.226Z,1832
2022-07-31T04:38:22.013Z,1571
2022-07-31T04:39:21.786Z,1706
2022-07-31T04:40:21.803Z,1964
2022-07-31T04:41:21.788Z,1953
2022-07-31T04:43:22.034Z,1940
2022-07-31T04:44:21.782Z,2004
2022-07-31T04:45:21.815Z,2004
2022-07-31T04:46:21.782Z,1994
2022-07-31T04:48:21.994Z,1697
2022-07-31T04:49:21.853Z,1772
2022-07-31T04:50:21.809Z,2068
2022-07-31T04:51:21.803Z,1951
2022-07-31T04:53:21.995Z,1940
2022-07-31T04:54:21.786Z,1706
2022-07-31T04:55:21.819Z,1720
2022-07-31T04:56:21.814Z,1712
2022-07-31T04:58:21.993Z,1790
2022-07-31T04:59:21.787Z,1689
2022-07-31T05:00:21.784Z,1697
2022-07-31T05:01:21.856Z,1985
2022-07-31T05:03:22.024Z,2038
2022-07-31T05:04:21.797Z,1951
2022-07-31T05:05:21.821Z,2015
2022-07-31T05:06:21.821Z,2004
2022-07-31T05:08:22.031Z,1728
2022-07-31T05:09:23.743Z,1751
2022-07-31T05:10:21.793Z,1689
2022-07-31T05:11:21.816Z,2033
2022-07-31T05:13:22.027Z,2025
2022-07-31T05:14:21.827Z,1738
2022-07-31T05:15:21.826Z,1746
2022-07-31T05:16:21.824Z,1994
2022-07-31T05:18:22.014Z,1887
2022-07-31T05:19:21.833Z,1951
2022-07-31T05:20:21.868Z,1951
2022-07-31T05:21:21.833Z,1717
2022-07-31T05:23:22.021Z,1756
2022-07-31T05:24:22.740Z,1756
2022-07-31T05:25:21.829Z,1683
2022-07-31T05:26:21.827Z,1756
2022-07-31T05:28:27.177Z,1507
2022-07-31T05:29:21.836Z,1516
2022-07-31T05:30:29.793Z,1774
2022-07-31T05:31:21.811Z,1749
2022-07-31T05:33:22.007Z,1433
2022-07-31T05:34:21.833Z,1738
2022-07-31T05:35:21.831Z,1746
2022-07-31T05:36:21.841Z,1663
2022-07-31T05:38:22.010Z,1650
2022-07-31T05:39:21.854Z,1715
2022-07-31T05:40:21.837Z,1703
2022-07-31T05:41:21.865Z,1441
2022-07-31T05:43:22.034Z,1723
2022-07-31T05:44:21.845Z,1738
2022-07-31T05:45:21.836Z,1689
2022-07-31T05:46:21.818Z,1689
2022-07-31T05:47:21.839Z,1650
2022-07-31T05:48:22.039Z,1689
2022-07-31T05:49:21.900Z,1461
2022-07-31T05:50:21.849Z,1476
2022-07-31T05:51:21.850Z,1703
2022-07-31T05:52:21.864Z,1717
2022-07-31T05:53:22.041Z,1697
2022-07-31T05:54:21.878Z,1575
2022-07-31T05:55:21.853Z,1707
2022-07-31T05:56:21.862Z,1644
2022-07-31T05:57:33.176Z,1746
2022-07-31T05:58:22.047Z,1617
2022-07-31T05:59:21.854Z,1461
2022-07-31T06:00:21.864Z,1494
2022-07-31T06:01:21.924Z,1494
2022-07-31T06:02:21.856Z,1744
2022-07-31T06:03:22.022Z,1738
2022-07-31T06:04:21.860Z,1715
2022-07-31T06:05:21.856Z,1701
2022-07-31T06:06:21.888Z,1662
2022-07-31T06:07:21.854Z,1697
2022-07-31T06:08:22.029Z,1792
2022-07-31T06:09:21.862Z,1689
2022-07-31T06:10:21.856Z,1701
2022-07-31T06:11:21.865Z,1461
2022-07-31T06:12:21.860Z,1701
2022-07-31T06:13:22.060Z,1584
2022-07-31T06:14:21.862Z,1701
2022-07-31T06:15:21.858Z,1683
2022-07-31T06:16:21.869Z,1674
2022-07-31T06:17:21.878Z,1644
2022-07-31T06:18:22.151Z,1644
2022-07-31T06:19:24.246Z,1756
2022-07-31T06:20:21.882Z,1470
2022-07-31T06:21:21.908Z,1514
2022-07-31T06:23:23.226Z,1738
2022-07-31T06:28:23.639Z,1707
2022-07-31T06:33:37.158Z,1689
2022-07-31T06:38:22.043Z,1559
2022-07-31T06:43:22.043Z,1613
2022-07-31T06:48:22.081Z,1367
2022-07-31T06:53:22.043Z,1346
2022-07-31T06:58:22.085Z,1578
2022-07-31T07:03:22.053Z,1571
2022-07-31T07:08:22.085Z,1562
2022-07-31T07:13:22.090Z,1315
2022-07-31T07:18:22.087Z,1345
2022-07-31T07:23:22.091Z,1520
2022-07-31T07:27:21.908Z,1601
2022-07-31T07:28:30.864Z,1594
2022-07-31T07:31:21.934Z,1545
2022-07-31T07:33:40.259Z,1528
2022-07-31T07:38:22.076Z,1540
2022-07-31T07:40:21.939Z,1312
2022-07-31T07:42:21.945Z,1293
2022-07-31T07:43:22.099Z,1520
2022-07-31T07:44:21.908Z,1566
2022-07-31T07:45:21.924Z,1546
2022-07-31T07:47:21.929Z,1309
2022-07-31T07:48:22.112Z,1581
2022-07-31T07:53:22.097Z,1296
2022-07-31T07:58:22.085Z,1627
2022-07-31T07:59:21.916Z,1540
2022-07-31T08:01:21.974Z,1310
2022-07-31T08:03:48.067Z,1566
2022-07-31T08:05:21.913Z,1604
2022-07-31T08:07:21.916Z,1399
2022-07-31T08:08:22.102Z,1375
2022-07-31T08:09:21.919Z,1377
2022-07-31T08:11:21.916Z,1472
2022-07-31T08:12:21.923Z,1566
2022-07-31T08:13:22.091Z,1585
2022-07-31T08:14:21.919Z,1377
2022-07-31T08:15:21.922Z,1393
2022-07-31T08:16:21.916Z,1415
2022-07-31T08:18:22.124Z,1657
2022-07-31T08:20:21.924Z,1585
2022-07-31T08:22:21.919Z,1578
2022-07-31T08:23:22.091Z,1593
2022-07-31T08:24:21.923Z,1613
2022-07-31T08:26:21.922Z,1550
2022-07-31T08:28:24.061Z,1540
2022-07-31T08:29:27.327Z,1578
2022-07-31T08:30:21.928Z,1256
2022-07-31T08:32:21.929Z,1332
2022-07-31T08:33:22.162Z,1613
2022-07-31T08:37:51.366Z,1415
2022-07-31T08:38:22.116Z,1666
2022-07-31T08:39:21.936Z,1565
2022-07-31T08:41:21.936Z,1614
2022-07-31T08:44:01.129Z,1588
2022-07-31T08:45:22.680Z,1562
2022-07-31T08:46:21.913Z,1338
2022-07-31T08:47:21.933Z,1350
2022-07-31T08:48:22.131Z,1536
2022-07-31T08:49:21.972Z,1581
2022-07-31T08:50:21.942Z,1476
2022-07-31T08:51:21.912Z,1558
2022-07-31T08:52:21.935Z,1585
2022-07-31T08:53:22.120Z,1346
2022-07-31T08:54:21.916Z,1332
2022-07-31T08:55:24.524Z,1597
2022-07-31T08:56:21.925Z,1578
2022-07-31T08:57:21.935Z,1610
2022-07-31T08:58:22.133Z,1522
2022-07-31T08:59:22.052Z,1411
2022-07-31T09:00:21.950Z,1355
2022-07-31T09:01:21.971Z,1546
2022-07-31T09:02:21.949Z,1369
2022-07-31T09:03:22.120Z,1334
2022-07-31T09:04:21.918Z,1305
2022-07-31T09:05:21.944Z,1501
2022-07-31T09:06:21.923Z,1245
2022-07-31T09:07:21.949Z,1215
2022-07-31T09:08:22.122Z,1401
2022-07-31T09:09:21.918Z,1461
2022-07-31T09:10:21.940Z,1451
2022-07-31T09:11:21.926Z,1245
2022-07-31T09:12:31.474Z,1273
2022-07-31T09:13:22.146Z,1401
2022-07-31T09:14:21.926Z,1261
2022-07-31T09:15:21.982Z,1264
2022-07-31T09:16:24.306Z,1476
2022-07-31T09:17:21.922Z,1318
2022-07-31T09:18:22.163Z,1435
2022-07-31T09:19:51.450Z,1249
2022-07-31T09:20:21.947Z,1258
2022-07-31T09:21:21.923Z,1463
2022-07-31T09:22:21.951Z,1463
2022-07-31T09:23:22.148Z,1195
2022-07-31T09:24:21.958Z,1283
2022-07-31T09:25:21.967Z,1437
2022-07-31T09:26:21.930Z,1391
2022-07-31T09:27:21.966Z,1478
2022-07-31T09:28:25.059Z,1316
2022-07-31T09:29:21.985Z,1381
2022-07-31T09:30:21.944Z,1461
2022-07-31T09:31:21.928Z,1441
2022-07-31T09:32:21.941Z,1445
2022-07-31T09:33:22.131Z,1478
2022-07-31T09:34:21.962Z,1261
2022-07-31T09:35:21.942Z,1249
2022-07-31T09:36:21.959Z,1391
2022-07-31T09:37:21.955Z,1422
2022-07-31T09:38:22.167Z,1422
2022-07-31T09:39:26.877Z,1251
2022-07-31T09:40:21.936Z,1269
2022-07-31T09:41:56.101Z,1472
2022-07-31T09:42:21.930Z,1463
2022-07-31T09:43:22.168Z,1318
2022-07-31T09:44:25.284Z,1558
2022-07-31T09:45:21.980Z,1546
2022-07-31T09:46:21.941Z,1348
2022-07-31T09:47:21.939Z,1352
2022-07-31T09:48:26.504Z,1604
2022-07-31T09:49:21.991Z,1571
2022-07-31T09:50:21.965Z,1555
2022-07-31T09:51:21.951Z,1542
2022-07-31T09:52:21.967Z,1315
2022-07-31T09:53:22.154Z,1332
2022-07-31T09:54:21.993Z,1346
2022-07-31T09:55:21.959Z,1571
2022-07-31T09:56:21.969Z,1559
2022-07-31T09:57:21.982Z,1559
2022-07-31T09:58:22.151Z,1373
2022-07-31T09:59:21.974Z,1282
2022-07-31T10:00:22.007Z,1315
2022-07-31T10:01:22.123Z,1536
2022-07-31T10:02:21.968Z,1524
2022-07-31T10:03:22.153Z,1430
2022-07-31T10:04:21.974Z,1604
2022-07-31T10:05:22.010Z,1562
2022-07-31T10:06:21.983Z,1383
2022-07-31T10:07:31.442Z,1610
2022-07-31T10:08:22.184Z,1688
2022-07-31T10:09:21.983Z,1528
2022-07-31T10:10:21.986Z,1550
2022-07-31T10:11:22.002Z,947
2022-07-31T10:12:22.016Z,1302
2022-07-31T10:13:22.186Z,1401
2022-07-31T10:14:22.015Z,1613
2022-07-31T10:15:22.033Z,1710
2022-07-31T10:16:21.989Z,1439
2022-07-31T10:17:22.001Z,1407
2022-07-31T10:18:35.494Z,1359
2022-07-31T10:19:22.017Z,1373
2022-07-31T10:20:22.003Z,1490
2022-07-31T10:21:21.997Z,1555
2022-07-31T10:22:22.006Z,1526
2022-07-31T10:23:22.188Z,1484
2022-07-31T10:24:26.047Z,1445
2022-07-31T10:25:22.003Z,1604
2022-07-31T10:26:27.132Z,1653
2022-07-31T10:27:22.001Z,1581
2022-07-31T10:28:22.172Z,1407
2022-07-31T10:29:21.998Z,1336
2022-07-31T10:30:26.070Z,1445
2022-07-31T10:31:21.997Z,1540
2022-07-31T10:32:21.995Z,1536
2022-07-31T10:33:42.809Z,1540
2022-07-31T10:34:22.003Z,1355
2022-07-31T10:35:22.010Z,1296
2022-07-31T10:36:22.002Z,1418
2022-07-31T10:37:22.001Z,1401
2022-07-31T10:38:22.170Z,1524
2022-07-31T10:39:21.965Z,1671
2022-07-31T10:40:21.994Z,1540
2022-07-31T10:41:21.965Z,1470
2022-07-31T10:42:21.998Z,1650
2022-07-31T10:43:22.166Z,1439
2022-07-31T10:44:22.001Z,1418
2022-07-31T10:45:21.969Z,1474
2022-07-31T10:46:22.010Z,1353
2022-07-31T10:47:21.973Z,1441
2022-07-31T10:48:22.178Z,1455
2022-07-31T10:49:21.987Z,1310
2022-07-31T10:50:21.982Z,1276
2022-07-31T10:51:21.993Z,1227
2022-07-31T10:52:21.984Z,1302
2022-07-31T10:53:22.173Z,1441
2022-07-31T10:54:21.975Z,1366
2022-07-31T10:55:22.011Z,1256
2022-07-31T10:56:21.996Z,1256
2022-07-31T10:57:21.977Z,1176
2022-07-31T10:58:22.177Z,1312
2022-07-31T10:59:21.982Z,1387
2022-07-31T11:00:21.977Z,1553
2022-07-31T11:01:22.037Z,1480
2022-07-31T11:02:21.982Z,1325
2022-07-31T11:03:22.211Z,1373
2022-07-31T11:04:21.993Z,1418
2022-07-31T11:05:22.009Z,1305
2022-07-31T11:06:22.015Z,1373
2022-07-31T11:07:21.981Z,1313
2022-07-31T11:08:22.215Z,1295
2022-07-31T11:09:21.984Z,1207
2022-07-31T11:10:21.986Z,1215
2022-07-31T11:11:24.658Z,1391
2022-07-31T11:12:21.981Z,1387
2022-07-31T11:13:22.202Z,1387
2022-07-31T11:14:21.986Z,1411
2022-07-31T11:15:22.007Z,1220
2022-07-31T11:16:21.987Z,1180
2022-07-31T11:18:16.091Z,1214
2022-07-31T11:18:26.625Z,1430
2022-07-31T11:19:22.021Z,1276
2022-07-31T11:20:22.017Z,1323
2022-07-31T11:22:31.132Z,1091
2022-07-31T11:23:22.188Z,1360
2022-07-31T11:24:22.023Z,1439
2022-07-31T11:25:21.990Z,1300
2022-07-31T11:26:32.321Z,1480
2022-07-31T11:27:21.999Z,1415
2022-07-31T11:28:22.193Z,1198
2022-07-31T11:29:58.409Z,1413
2022-07-31T11:30:21.999Z,1266
2022-07-31T11:31:22.023Z,1193
2022-07-31T11:32:24.860Z,1003
2022-07-31T11:33:22.216Z,1088
2022-07-31T11:34:22.022Z,1355
2022-07-31T11:35:21.994Z,1338
2022-07-31T11:36:22.032Z,1251
2022-07-31T11:37:22.018Z,1364
2022-07-31T11:38:22.207Z,1251
2022-07-31T11:39:25.114Z,1212
2022-07-31T11:40:22.144Z,1288
2022-07-31T11:41:22.995Z,1411
2022-07-31T11:42:25.372Z,1207
2022-07-31T11:43:26.283Z,1189
2022-07-31T11:44:22.022Z,1229
2022-07-31T11:45:22.028Z,1188
2022-07-31T11:46:22.056Z,1103
2022-07-31T11:47:56.093Z,1242
2022-07-31T11:48:22.228Z,1261
2022-07-31T11:49:22.100Z,1119
2022-07-31T11:50:22.044Z,895
2022-07-31T11:51:22.033Z,1195
2022-07-31T11:52:30.574Z,1136
2022-07-31T11:53:22.243Z,1001
2022-07-31T11:54:22.044Z,1230
2022-07-31T11:55:22.044Z,1006
2022-07-31T11:56:22.050Z,1049
2022-07-31T11:57:22.058Z,1159
2022-07-31T11:58:22.236Z,1141
2022-07-31T11:59:45.002Z,1083
2022-07-31T12:00:24.808Z,1195
2022-07-31T12:01:22.038Z,995
2022-07-31T12:02:22.089Z,867
2022-07-31T12:03:22.229Z,1089
2022-07-31T12:04:22.075Z,1108
2022-07-31T12:05:36.202Z,959
2022-07-31T12:06:22.052Z,921
2022-07-31T12:07:22.059Z,1089
2022-07-31T12:08:22.227Z,1065
2022-07-31T12:10:01.696Z,862
2022-07-31T12:10:22.043Z,1049
2022-07-31T12:11:22.060Z,1078
2022-07-31T12:12:22.052Z,1078
2022-07-31T12:13:22.220Z,890
2022-07-31T12:14:22.059Z,925
2022-07-31T12:15:22.062Z,1233
2022-07-31T12:16:22.052Z,1027
2022-07-31T12:17:22.061Z,1012
2022-07-31T12:18:22.234Z,996
2022-07-31T12:19:22.068Z,1133
2022-07-31T12:20:34.821Z,1108
2022-07-31T12:21:22.049Z,1124
2022-07-31T12:22:22.055Z,921
2022-07-31T12:23:38.337Z,1036
2022-07-31T12:24:22.055Z,1014
2022-07-31T12:25:22.053Z,1081
2022-07-31T12:26:22.060Z,930
2022-07-31T12:27:22.057Z,926
2022-07-31T12:28:22.254Z,987
2022-07-31T12:29:22.100Z,1201
2022-07-31T12:30:22.078Z,1121
2022-07-31T12:31:22.056Z,1069
2022-07-31T12:32:22.064Z,1009
2022-07-31T12:33:22.233Z,981
2022-07-31T12:34:22.073Z,1096
2022-07-31T12:35:22.057Z,1096
2022-07-31T12:36:22.034Z,1038
2022-07-31T12:37:22.062Z,878
2022-07-31T12:38:38.108Z,890
2022-07-31T12:39:22.067Z,923
2022-07-31T12:40:22.034Z,1047
2022-07-31T12:41:22.060Z,1102
2022-07-31T12:42:22.027Z,1128
2022-07-31T12:43:22.288Z,975
2022-07-31T12:44:22.204Z,1078
2022-07-31T12:45:22.062Z,1096
2022-07-31T12:46:22.043Z,1157
2022-07-31T12:47:22.062Z,1148
2022-07-31T12:48:22.238Z,1102
2022-07-31T12:49:22.163Z,975
2022-07-31T12:50:22.050Z,947
2022-07-31T12:51:43.967Z,982
2022-07-31T12:52:22.038Z,1094
2022-07-31T12:53:22.236Z,1085
2022-07-31T12:54:22.055Z,981
2022-07-31T12:55:22.088Z,942
2022-07-31T12:56:22.061Z,956
2022-07-31T12:57:22.046Z,1099
2022-07-31T12:58:22.272Z,1103
2022-07-31T12:59:22.046Z,1108
2022-07-31T13:00:22.074Z,1058
2022-07-31T13:01:22.078Z,1081
2022-07-31T13:02:22.069Z,1075
2022-07-31T13:03:22.242Z,980
2022-07-31T13:04:22.065Z,1113
2022-07-31T13:05:22.052Z,1102
2022-07-31T13:06:22.063Z,944
2022-07-31T13:07:22.063Z,932
2022-07-31T13:08:22.275Z,872
2022-07-31T13:09:22.064Z,1116
2022-07-31T13:10:24.084Z,1065
2022-07-31T13:11:22.066Z,1103
2022-07-31T13:12:22.074Z,942
2022-07-31T13:13:22.259Z,959
2022-07-31T13:14:22.073Z,950
2022-07-31T13:15:22.528Z,928
2022-07-31T13:16:22.080Z,1089
2022-07-31T13:17:22.070Z,1114
2022-07-31T13:18:22.280Z,1027
2022-07-31T13:19:22.069Z,1188
2022-07-31T13:20:22.080Z,1041
2022-07-31T13:21:22.080Z,1013
2022-07-31T13:22:22.088Z,1008
2022-07-31T13:23:22.266Z,986
2022-07-31T13:24:22.080Z,1085
2022-07-31T13:25:22.072Z,1151
2022-07-31T13:26:22.074Z,1151
2022-07-31T13:27:22.068Z,1195
2022-07-31T13:28:22.284Z,1139
2022-07-31T13:29:22.114Z,970
2022-07-31T13:30:22.083Z,982
2022-07-31T13:31:22.081Z,1102
2022-07-31T13:32:22.090Z,1157
2022-07-31T13:33:22.290Z,1168
2022-07-31T13:34:22.097Z,1089
2022-07-31T13:35:24.130Z,998
2022-07-31T13:36:22.102Z,1017
2022-07-31T13:37:22.087Z,1201
2022-07-31T13:38:22.258Z,1212
2022-07-31T13:39:22.091Z,1008
2022-07-31T13:40:22.085Z,1182
2022-07-31T13:41:22.112Z,1041
2022-07-31T13:42:24.303Z,1130
2022-07-31T13:43:22.270Z,972
2022-07-31T13:44:22.088Z,970
2022-07-31T13:45:22.119Z,1125
2022-07-31T13:46:22.099Z,967
2022-07-31T13:47:22.093Z,930
2022-07-31T13:48:22.295Z,1012
2022-07-31T13:49:22.131Z,1103
2022-07-31T13:50:22.099Z,1198
2022-07-31T13:51:22.365Z,1186
2022-07-31T13:52:22.101Z,976
2022-07-31T13:53:22.299Z,966
2022-07-31T13:54:22.113Z,1063
2022-07-31T13:55:22.099Z,892
2022-07-31T13:56:34.151Z,920
2022-07-31T13:57:22.103Z,1054
2022-07-31T13:58:22.291Z,1046
2022-07-31T13:59:22.105Z,1046
2022-07-31T14:00:22.093Z,1060
2022-07-31T14:01:22.186Z,1062
2022-07-31T14:02:22.113Z,901
2022-07-31T14:03:22.299Z,1107
2022-07-31T14:04:23.017Z,1049
2022-07-31T14:05:22.077Z,1075
2022-07-31T14:06:22.108Z,947
2022-07-31T14:07:22.094Z,864
2022-07-31T14:08:29.597Z,827
2022-07-31T14:09:22.074Z,872
2022-07-31T14:10:22.081Z,900
2022-07-31T14:11:22.076Z,1006
2022-07-31T14:12:22.118Z,1033
2022-07-31T14:13:22.287Z,997
2022-07-31T14:14:22.404Z,909
2022-07-31T14:15:22.109Z,914
2022-07-31T14:16:22.075Z,880
2022-07-31T14:17:22.102Z,915
2022-07-31T14:18:22.301Z,1003
2022-07-31T14:19:22.105Z,1068
2022-07-31T14:20:22.090Z,932
2022-07-31T14:21:22.114Z,1057
2022-07-31T14:22:22.095Z,919
2022-07-31T14:23:31.701Z,895
2022-07-31T14:24:22.084Z,930
2022-07-31T14:25:22.114Z,1068
2022-07-31T14:26:22.098Z,1083
2022-07-31T14:27:22.126Z,1088
2022-07-31T14:28:22.296Z,1074
2022-07-31T14:29:22.117Z,1189
2022-07-31T14:30:22.090Z,1097
2022-07-31T14:31:22.120Z,1132
2022-07-31T14:32:22.148Z,1094
2022-07-31T14:33:22.321Z,1116
2022-07-31T14:34:22.090Z,1119
2022-07-31T14:35:22.117Z,1012
2022-07-31T14:36:22.087Z,1138
2022-07-31T14:37:22.116Z,1105
2022-07-31T14:38:24.108Z,1100
2022-07-31T14:39:22.121Z,1151
2022-07-31T14:40:22.104Z,1100
2022-07-31T14:41:22.126Z,1145
2022-07-31T14:42:25.468Z,980
2022-07-31T14:43:22.327Z,1148
2022-07-31T14:44:23.942Z,1130
2022-07-31T14:45:22.116Z,1196
2022-07-31T14:46:22.091Z,1193
2022-07-31T14:47:22.107Z,1157
2022-07-31T14:48:22.296Z,1091
2022-07-31T14:49:22.177Z,1139
2022-07-31T14:50:22.147Z,1017
2022-07-31T14:51:22.125Z,1052
2022-07-31T14:52:22.146Z,946
2022-07-31T14:53:22.331Z,1092
2022-07-31T14:54:22.106Z,1174
2022-07-31T14:55:22.131Z,1174
2022-07-31T14:56:39.563Z,1180
2022-07-31T17:22:51.244Z,913
2022-07-31T17:23:50.966Z,1621
2022-07-31T17:24:50.013Z,1805
2022-07-31T17:25:50.002Z,3149
2022-07-31T17:27:50.144Z,5147
2022-07-31T17:28:50.034Z,2839
2022-07-31T17:29:50.012Z,3268
2022-07-31T17:30:49.998Z,2158
2022-07-31T17:32:50.117Z,3315
2022-07-31T17:33:59.950Z,2913
2022-07-31T17:34:49.988Z,2001
2022-07-31T17:35:49.979Z,2913
2022-07-31T17:37:50.140Z,1773
2022-07-31T17:38:49.946Z,1643
2022-07-31T17:39:49.976Z,2240
2022-07-31T17:40:49.946Z,1900
2022-07-31T17:42:50.144Z,1429
2022-07-31T17:43:53.033Z,2128
2022-07-31T17:44:53.327Z,2189
2022-07-31T17:45:50.795Z,2226
2022-07-31T17:48:01.232Z,1429
2022-07-31T17:48:50.029Z,1307
2022-07-31T17:49:50.005Z,1252
2022-07-31T17:50:53.873Z,1612
2022-07-31T17:52:50.150Z,1385
2022-07-31T17:53:54.835Z,1594
2022-07-31T17:54:50.021Z,1574
2022-07-31T17:55:50.022Z,1594
2022-07-31T17:57:50.178Z,1420
2022-07-31T17:58:50.022Z,918
2022-07-31T17:59:50.020Z,1053
2022-07-31T18:00:50.032Z,1125
2022-07-31T18:02:50.149Z,1594
2022-07-31T18:03:50.021Z,1413
2022-07-31T18:04:50.047Z,1215
2022-07-31T18:05:50.013Z,1122
2022-07-31T18:07:51.851Z,1245
2022-07-31T18:08:50.033Z,1204
2022-07-31T18:09:50.024Z,1188
2022-07-31T18:10:53.779Z,827
2022-07-31T18:12:57.958Z,853
2022-07-31T18:13:51.689Z,844
2022-07-31T18:14:50.029Z,1093
2022-07-31T18:15:50.025Z,1134
2022-07-31T18:17:50.144Z,1105
2022-07-31T18:18:53.966Z,951
2022-07-31T18:19:50.027Z,925
2022-07-31T18:20:50.028Z,935
2022-07-31T18:22:50.195Z,925
2022-07-31T18:23:50.029Z,970
2022-07-31T18:24:50.021Z,933
2022-07-31T18:25:50.028Z,798
2022-07-31T18:27:50.152Z,836
2022-07-31T18:28:49.971Z,855
2022-07-31T18:29:53.950Z,719
2022-07-31T18:30:50.049Z,836
2022-07-31T18:32:50.142Z,778
2022-07-31T18:33:50.031Z,556
2022-07-31T18:34:50.036Z,874
2022-07-31T18:35:50.022Z,832
2022-07-31T18:37:50.145Z,551
2022-07-31T18:38:50.006Z,524